LIEE/CAG METAR and TAF weather

Enter ICAO airport designator
Station Type Date Time Source
LIEE METAR 2020/04/10 11:50 UTC NOAA

LIEE 101150Z 19009KT 9999 FEW035 19/09 Q1023


Station Type Date Time Source
LIEE Decoded METAR 2020/04/10 11:50 UTC NOAA

Cagliari / Elmas, Italy (LIEE) 39-15N 009-04E 5M
Apr 10, 2020 - 07:50 AM EDT / 2020.04.10 1150 UTC
Wind: from the S (190 degrees) at 10 MPH (9 KT):0
Visibility: greater than 7 mile(s):0
Sky conditions: mostly clear
Temperature: 66 F (19 C)
Dew Point: 48 F (9 C)
Relative Humidity: 52%
Pressure (altimeter): 30.21 in. Hg (1023 hPa)
ob: LIEE 101150Z 19009KT 9999 FEW035 19/09 Q1023
cycle: 12

Station Type Date Time Source
LIEE TAF 2020/04/10 18:21 UTC NOAA

TAF LIEE 101700Z 1018/1118 VRB05KT CAVOK
BECMG 1109/1111 15012KT

Example: see airport list